createdAt,value
2022-08-19T00:06:48.409Z,2.58
2022-08-19T00:09:15.994Z,2.35
2022-08-19T00:16:36.710Z,2.50
2022-08-19T00:19:03.758Z,2.53
2022-08-19T00:21:31.072Z,2.63
2022-08-19T00:24:01.584Z,2.58
2022-08-19T00:26:28.830Z,2.72
2022-08-19T00:31:21.905Z,2.67
2022-08-19T00:33:51.549Z,2.70
2022-08-19T00:36:18.578Z,3.20
2022-08-19T00:38:45.407Z,3.20
2022-08-19T00:41:15.742Z,2.60
2022-08-19T00:48:34.640Z,3.30
2022-08-19T00:51:01.482Z,3.58
2022-08-19T00:53:29.703Z,4.00
2022-08-19T00:55:57.574Z,3.47
2022-08-19T00:58:28.425Z,3.53
2022-08-19T01:03:21.649Z,3.13
2022-08-19T01:05:49.432Z,3.25
2022-08-19T01:08:16.900Z,2.92
2022-08-19T01:10:46.722Z,3.22
2022-08-19T01:13:15.703Z,2.97
2022-08-19T01:18:14.857Z,2.83
2022-08-19T01:20:42.333Z,2.70
2022-08-19T01:23:09.050Z,3.10
2022-08-19T01:25:48.063Z,3.17
2022-08-19T01:28:20.018Z,2.95
2022-08-19T01:31:01.235Z,3.38
2022-08-19T01:33:34.981Z,3.20
2022-08-19T01:41:11.216Z,3.30
2022-08-19T01:43:38.746Z,2.58
2022-08-19T01:46:25.788Z,2.83
2022-08-19T01:48:52.455Z,3.20
2022-08-19T01:51:19.232Z,3.33
2022-08-19T01:53:48.377Z,2.92
2022-08-19T01:56:15.044Z,3.42
2022-08-19T01:58:49.554Z,3.17
2022-08-19T02:01:16.284Z,3.60
2022-08-19T02:03:43.010Z,3.53
2022-08-19T02:06:09.651Z,3.35
2022-08-19T02:08:38.582Z,3.45
2022-08-19T02:11:05.738Z,3.38
2022-08-19T02:13:32.699Z,3.50
2022-08-19T02:15:59.352Z,3.63
2022-08-19T02:18:37.271Z,3.00
2022-08-19T02:21:03.953Z,3.58
2022-08-19T02:23:30.642Z,3.90
2022-08-19T02:25:57.272Z,3.47
2022-08-19T02:35:44.542Z,3.92
2022-08-19T02:38:26.486Z,3.30
2022-08-19T02:40:54.536Z,3.70
2022-08-19T02:43:21.583Z,4.10
2022-08-19T02:45:49.378Z,3.80
2022-08-19T02:48:21.490Z,3.53
2022-08-19T03:00:35.869Z,4.63
2022-08-19T03:03:08.842Z,4.63
2022-08-19T03:08:01.016Z,4.43
2022-08-19T03:10:27.707Z,3.83
2022-08-19T03:12:54.530Z,4.57
2022-08-19T03:15:21.499Z,4.30
2022-08-19T03:17:48.214Z,4.60
2022-08-19T03:20:14.868Z,3.95
2022-08-19T03:29:57.877Z,3.92
2022-08-19T03:32:32.268Z,4.78
2022-08-19T03:34:59.980Z,4.35
2022-08-19T03:37:27.228Z,3.90
2022-08-19T03:39:53.898Z,3.97
2022-08-19T03:42:47.822Z,4.28
2022-08-19T03:45:08.497Z,4.45
2022-08-19T03:50:00.699Z,4.05
2022-08-19T03:52:27.428Z,3.88
2022-08-19T03:54:54.166Z,4.25
2022-08-19T03:57:42.664Z,4.05
2022-08-19T04:02:35.747Z,3.83
2022-08-19T04:05:02.904Z,3.40
2022-08-19T04:07:29.601Z,4.18
2022-08-19T04:09:56.338Z,3.80
2022-08-19T04:12:23.029Z,3.88
2022-08-19T04:14:49.715Z,4.05
2022-08-19T04:19:42.782Z,4.15
2022-08-19T04:22:09.702Z,3.90
2022-08-19T04:24:36.478Z,4.43
2022-08-19T04:27:03.747Z,4.22
2022-08-19T04:29:31.345Z,4.05
2022-08-19T04:31:59.607Z,4.03
2022-08-19T04:34:27.601Z,4.20
2022-08-19T04:36:55.356Z,4.07
2022-08-19T04:39:44.674Z,4.20
2022-08-19T04:42:30.646Z,4.03
2022-08-19T04:44:59.623Z,4.13
2022-08-19T04:47:47.552Z,4.10
2022-08-19T04:59:59.955Z,3.83
2022-08-19T05:04:59.794Z,3.70
2022-08-19T05:07:27.052Z,3.60
2022-08-19T05:09:58.680Z,4.18
2022-08-19T05:12:26.789Z,3.58
2022-08-19T05:14:57.914Z,3.50
2022-08-19T05:17:28.751Z,3.80
2022-08-19T05:20:15.776Z,3.55
2022-08-19T05:22:43.743Z,3.65
2022-08-19T05:25:13.902Z,2.88
2022-08-19T05:32:32.687Z,2.90
2022-08-19T05:37:27.775Z,3.35
2022-08-19T05:39:55.775Z,3.30
2022-08-19T05:42:24.164Z,3.40
2022-08-19T05:44:51.765Z,3.40
2022-08-19T05:47:20.876Z,3.10
2022-08-19T05:49:48.026Z,3.60
2022-08-19T05:52:16.996Z,2.95
2022-08-19T05:54:51.063Z,3.25
2022-08-19T05:57:18.342Z,3.20
2022-08-19T05:59:47.259Z,3.40
2022-08-19T06:04:43.906Z,3.03
2022-08-19T06:07:11.982Z,3.45
2022-08-19T06:09:40.119Z,2.75
2022-08-19T06:12:07.453Z,3.15
2022-08-19T06:14:40.116Z,2.75
2022-08-19T06:19:34.833Z,3.10
2022-08-19T06:22:08.497Z,3.08
2022-08-19T06:31:54.931Z,2.90
2022-08-19T06:36:49.415Z,3.00
2022-08-19T06:39:18.503Z,3.25
2022-08-19T06:41:51.518Z,2.35
2022-08-19T06:44:20.628Z,2.47
2022-08-19T06:46:53.582Z,2.38
2022-08-19T06:49:21.955Z,2.22
2022-08-19T06:51:49.836Z,2.60
2022-08-19T06:54:19.799Z,2.20
2022-08-19T06:56:46.946Z,2.35
2022-08-19T06:59:14.840Z,2.53
2022-08-19T07:01:47.811Z,2.17
2022-08-19T07:09:08.960Z,1.90
2022-08-19T07:11:36.330Z,2.10
2022-08-19T07:14:05.226Z,2.15
2022-08-19T07:16:31.884Z,2.08
2022-08-19T07:23:52.976Z,2.40
2022-08-19T07:31:15.308Z,1.92
2022-08-19T07:33:44.063Z,2.13
2022-08-19T07:36:14.931Z,2.13
2022-08-19T07:38:42.774Z,2.20
2022-08-19T07:41:13.497Z,1.80
2022-08-19T07:43:40.932Z,2.30
2022-08-19T07:48:39.619Z,2.22
2022-08-19T07:51:09.115Z,2.05
2022-08-19T07:53:39.638Z,2.38
2022-08-19T07:56:07.002Z,2.20
2022-08-19T07:58:37.644Z,2.00
2022-08-19T08:01:05.438Z,2.15
2022-08-19T08:03:50.995Z,2.10
2022-08-19T08:06:36.201Z,1.88
2022-08-19T08:11:49.910Z,2.20
2022-08-19T08:14:29.110Z,2.35
2022-08-19T08:24:15.116Z,2.10
2022-08-19T08:26:46.693Z,2.40
2022-08-19T08:29:14.268Z,2.33
2022-08-19T08:31:41.944Z,2.47
2022-08-19T08:34:09.411Z,2.55
2022-08-19T08:39:09.745Z,1.70
2022-08-19T08:41:43.317Z,1.67
2022-08-19T08:44:17.206Z,2.03
2022-08-19T08:46:49.870Z,2.00
2022-08-19T08:49:25.671Z,2.00
2022-08-19T08:54:34.752Z,2.30
2022-08-19T08:57:03.928Z,2.22
2022-08-19T08:59:35.907Z,2.10
2022-08-19T09:02:02.682Z,1.52
2022-08-19T09:04:29.611Z,1.98
2022-08-19T09:07:01.294Z,2.13
2022-08-19T09:09:50.239Z,1.95
2022-08-19T09:17:36.520Z,1.80
2022-08-19T09:20:22.552Z,1.98
2022-08-19T09:22:50.568Z,1.63
2022-08-19T09:25:24.673Z,2.08
2022-08-19T09:30:23.248Z,2.08
2022-08-19T09:32:52.717Z,1.90
2022-08-19T09:37:46.276Z,1.90
2022-08-19T09:40:13.300Z,2.30
2022-08-19T09:45:05.965Z,2.20
2022-08-19T09:47:40.579Z,2.22
2022-08-19T09:50:08.892Z,2.67
2022-08-19T09:52:37.657Z,2.20
2022-08-19T09:55:08.118Z,1.88
2022-08-19T09:57:35.260Z,1.73
2022-08-19T10:00:02.300Z,1.60
2022-08-19T10:02:29.077Z,1.48
2022-08-19T10:05:14.435Z,2.20
2022-08-19T10:07:50.237Z,2.10
2022-08-19T10:10:17.314Z,1.98
2022-08-19T10:12:47.415Z,1.90
2022-08-19T10:15:16.088Z,1.92
2022-08-19T10:20:08.330Z,2.10
2022-08-19T10:22:36.778Z,2.10
2022-08-19T10:27:29.087Z,2.42
2022-08-19T10:29:58.951Z,2.20
2022-08-19T10:32:34.256Z,2.28
2022-08-19T10:35:01.791Z,2.13
2022-08-19T10:39:53.921Z,2.58
2022-08-19T10:42:21.800Z,2.17
2022-08-19T10:49:59.297Z,2.30
2022-08-19T10:52:34.804Z,2.10
2022-08-19T11:00:16.199Z,2.30
2022-08-19T11:02:43.061Z,2.42
2022-08-19T11:05:12.623Z,2.40
2022-08-19T11:07:40.707Z,2.20
2022-08-19T11:10:11.505Z,2.10
2022-08-19T11:17:32.678Z,2.40
2022-08-19T11:20:00.390Z,2.22
2022-08-19T11:22:31.780Z,1.83
2022-08-19T11:25:06.070Z,1.80
2022-08-19T11:27:32.757Z,1.67
2022-08-19T11:29:59.353Z,1.63
2022-08-19T11:32:26.553Z,1.30
2022-08-19T11:34:53.342Z,1.60
2022-08-19T11:37:19.958Z,1.00
2022-08-19T11:39:46.647Z,1.52
2022-08-19T11:42:38.698Z,1.10
2022-08-19T11:45:05.530Z,1.38
2022-08-19T11:47:32.191Z,1.83
2022-08-19T11:49:58.792Z,6.85
2022-08-19T11:52:26.459Z,3.15
2022-08-19T11:54:53.255Z,1.38
2022-08-19T11:57:20.805Z,0.90
2022-08-19T12:04:42.454Z,1.00
2022-08-19T12:12:02.882Z,0.80
2022-08-19T12:26:52.464Z,0.80
2022-08-19T12:31:46.062Z,0.70
2022-08-19T12:34:13.507Z,0.70
2022-08-19T12:39:06.732Z,0.80
2022-08-19T12:41:43.359Z,0.70
2022-08-19T12:49:24.515Z,0.47
2022-08-19T12:54:26.230Z,0.50
2022-08-19T12:56:52.905Z,0.32
2022-08-19T12:59:19.882Z,0.40
2022-08-19T13:01:46.558Z,0.43
2022-08-19T13:04:13.371Z,0.47
2022-08-19T13:06:40.249Z,0.52
2022-08-19T13:09:06.883Z,0.40
2022-08-19T13:11:34.763Z,0.40
2022-08-19T13:16:28.747Z,0.40
2022-08-19T13:18:56.875Z,0.35
2022-08-19T13:21:25.153Z,0.50
2022-08-19T13:23:52.596Z,0.60
2022-08-19T13:26:19.314Z,0.52
2022-08-19T13:39:08.696Z,0.70
2022-08-19T13:48:53.950Z,0.70
2022-08-19T13:51:21.178Z,0.77
2022-08-19T13:53:48.270Z,0.60
2022-08-19T13:56:16.623Z,0.50
2022-08-19T13:58:43.410Z,0.43
2022-08-19T14:01:10.250Z,0.50
2022-08-19T14:03:37.324Z,0.43
2022-08-19T14:06:04.014Z,0.50
2022-08-19T14:08:33.283Z,0.60
2022-08-19T14:11:00.639Z,0.45
2022-08-19T14:13:34.928Z,0.40
2022-08-19T14:16:01.629Z,0.70
2022-08-19T14:18:28.660Z,0.85
2022-08-19T14:20:57.867Z,0.90
2022-08-19T14:23:25.762Z,0.98
2022-08-19T14:25:52.436Z,1.10
2022-08-19T14:30:45.644Z,1.00
2022-08-19T14:33:12.683Z,1.05
2022-08-19T14:40:32.572Z,1.00
2022-08-19T14:45:31.219Z,0.90
2022-08-19T14:48:00.366Z,0.98
2022-08-19T14:52:59.031Z,1.05
2022-08-19T14:55:25.778Z,0.90
2022-08-19T15:00:18.133Z,1.13
2022-08-19T15:02:47.440Z,1.02
2022-08-19T15:05:14.266Z,1.23
2022-08-19T15:07:42.012Z,1.20
2022-08-19T15:10:09.300Z,0.95
2022-08-19T15:12:36.463Z,1.00
2022-08-19T15:15:03.514Z,1.02
2022-08-19T15:17:43.627Z,1.48
2022-08-19T15:25:13.574Z,1.33
2022-08-19T15:27:41.805Z,1.25
2022-08-19T15:30:09.467Z,1.08
2022-08-19T15:32:37.370Z,1.23
2022-08-19T15:35:05.591Z,1.20
2022-08-19T15:37:32.338Z,1.23
2022-08-19T15:40:04.928Z,1.00
2022-08-19T15:42:31.662Z,0.77
2022-08-19T15:45:01.355Z,1.00
2022-08-19T15:50:00.598Z,0.75
2022-08-19T15:52:27.705Z,0.80
2022-08-19T15:57:22.504Z,0.88
2022-08-19T16:02:53.717Z,0.75
2022-08-19T16:17:58.177Z,1.15
2022-08-19T16:20:26.390Z,1.38
2022-08-19T16:22:53.996Z,1.77
2022-08-19T16:27:54.241Z,1.40
2022-08-19T16:30:33.467Z,1.48
2022-08-19T16:33:00.172Z,1.98
2022-08-19T16:35:26.805Z,1.98
2022-08-19T16:37:53.797Z,2.10
2022-08-19T16:40:20.681Z,1.92
2022-08-19T16:42:47.482Z,2.40
2022-08-19T16:45:14.201Z,1.55
2022-08-19T16:47:41.301Z,2.05
2022-08-19T16:50:08.110Z,1.70
2022-08-19T16:55:02.010Z,1.63
2022-08-19T16:57:28.782Z,2.17
2022-08-19T16:59:55.738Z,2.45
2022-08-19T17:02:23.618Z,2.38
2022-08-19T17:04:58.275Z,2.17
2022-08-19T17:09:54.949Z,1.92
2022-08-19T17:12:22.182Z,2.10
2022-08-19T17:14:49.205Z,2.10
2022-08-19T17:17:16.085Z,1.95
2022-08-19T17:19:44.182Z,2.50
2022-08-19T17:22:11.730Z,2.53
2022-08-19T17:27:05.643Z,2.50
2022-08-19T17:29:32.998Z,2.22
2022-08-19T17:31:59.954Z,2.90
2022-08-19T17:34:26.720Z,2.70
2022-08-19T17:36:53.819Z,2.53
2022-08-19T17:44:11.391Z,2.67
2022-08-19T17:54:07.765Z,1.83
2022-08-19T17:56:34.509Z,2.63
2022-08-19T17:59:01.639Z,2.45
2022-08-19T18:01:37.790Z,2.72
2022-08-19T18:04:17.235Z,3.05
2022-08-19T18:06:50.248Z,3.05
2022-08-19T18:09:20.774Z,2.72
2022-08-19T18:11:52.772Z,2.35
2022-08-19T18:14:20.529Z,2.65
2022-08-19T18:16:47.240Z,2.08
2022-08-19T18:19:13.999Z,2.60
2022-08-19T18:21:40.908Z,2.50
2022-08-19T18:24:07.836Z,2.50
2022-08-19T18:29:00.436Z,2.78
2022-08-19T18:31:29.259Z,3.30
2022-08-19T18:36:50.014Z,3.05
2022-08-19T18:42:10.595Z,2.28
2022-08-19T18:44:59.720Z,2.53
2022-08-19T18:47:45.526Z,2.33
2022-08-19T18:50:13.867Z,3.08
2022-08-19T18:52:40.712Z,2.65
2022-08-19T18:55:07.703Z,2.88
2022-08-19T18:57:34.402Z,2.28
2022-08-19T19:00:02.701Z,2.65
2022-08-19T19:02:29.503Z,2.30
2022-08-19T19:04:56.208Z,2.38
2022-08-19T19:07:23.465Z,2.10
2022-08-19T19:14:49.441Z,2.58
2022-08-19T19:22:17.733Z,2.70
2022-08-19T19:24:44.694Z,2.85
2022-08-19T19:27:13.093Z,2.95
2022-08-19T19:32:08.014Z,2.30
2022-08-19T19:34:36.922Z,2.78
2022-08-19T19:37:03.704Z,2.40
2022-08-19T19:39:45.232Z,2.55
2022-08-19T19:44:41.605Z,2.65
2022-08-19T19:47:15.507Z,2.78
2022-08-19T19:52:08.004Z,2.45
2022-08-19T19:54:41.844Z,2.80
2022-08-19T19:57:15.479Z,2.60
2022-08-19T20:04:34.271Z,3.05
2022-08-19T20:09:43.604Z,2.70
2022-08-19T20:14:38.861Z,2.45
2022-08-19T20:17:05.684Z,2.65
2022-08-19T20:24:34.841Z,2.83
2022-08-19T20:39:10.173Z,2.70
2022-08-19T20:41:37.037Z,2.97
2022-08-19T20:44:05.097Z,2.92
2022-08-19T20:46:32.336Z,3.85
2022-08-19T20:48:59.637Z,3.03
2022-08-19T20:51:27.064Z,2.83
2022-08-19T21:03:42.928Z,2.78
2022-08-19T21:06:11.110Z,3.80
2022-08-19T21:08:40.929Z,2.95
2022-08-19T21:11:08.124Z,3.05
2022-08-19T21:13:34.791Z,4.22
2022-08-19T21:20:53.281Z,3.47
2022-08-19T21:25:54.454Z,3.40
2022-08-19T21:28:34.507Z,3.30
2022-08-19T21:35:57.549Z,3.00
2022-08-19T21:38:24.264Z,3.85
2022-08-19T21:43:50.492Z,3.15
2022-08-19T21:46:17.363Z,3.58
2022-08-19T21:48:44.257Z,3.58
2022-08-19T22:01:00.359Z,4.05
2022-08-19T22:03:27.470Z,4.07
2022-08-19T22:08:19.748Z,3.38
2022-08-19T22:10:46.663Z,4.28
2022-08-19T22:18:04.421Z,3.83
2022-08-19T22:20:31.983Z,3.83
2022-08-19T22:23:00.748Z,3.35
2022-08-19T22:25:31.324Z,4.07
2022-08-19T22:28:00.545Z,4.53
2022-08-19T22:30:33.398Z,4.22
2022-08-19T22:45:16.978Z,4.07
2022-08-19T22:47:43.828Z,3.42
2022-08-19T22:50:13.833Z,3.97
2022-08-19T22:52:51.856Z,3.35
2022-08-19T22:55:19.140Z,4.30
2022-08-19T22:57:45.862Z,4.18
2022-08-19T23:00:13.652Z,3.95
2022-08-19T23:05:07.054Z,4.20
2022-08-19T23:07:33.999Z,3.47
2022-08-19T23:10:00.699Z,3.03
2022-08-19T23:12:29.006Z,4.05
2022-08-19T23:14:55.700Z,4.20
2022-08-19T23:22:18.066Z,3.38
2022-08-19T23:24:44.832Z,4.15
2022-08-19T23:27:29.864Z,3.63
2022-08-19T23:32:40.912Z,3.40
2022-08-19T23:35:07.811Z,4.13
2022-08-19T23:37:34.506Z,4.78
2022-08-19T23:40:01.409Z,4.15
2022-08-19T23:42:28.980Z,3.80
2022-08-19T23:45:00.278Z,3.72
2022-08-19T23:47:27.073Z,4.60
2022-08-19T23:49:53.717Z,3.78
2022-08-19T23:57:13.534Z,4.25
2022-08-19T23:59:42.601Z,4.38
